Cass Lake, Minnesota
Current Conditions -  °F | °C
As of 1:35 PM on Friday 24 Oct 2014 (Local Time) from KY49 Reporting Station
Clear Clear  
Wind Chill: 69°   Ceiling: Unl
Heat Index: 69°   Visibility: 10mi
Dew Point: 39°   Wind: 12mph
Humidity: 33%   Direction: 230°SW
Pressure: 29.77"   Gusts: NA
Location:  47.38°N, 94.6°W
Report Text: KY49 241835Z AUTO 23010KT 10SM CLR 21/04 A2977 RMK AO2 T02080041
Loading
Personal Weather Stations






























Interactive Weather Map
Tropical Storm Tracking
New forecast layout! Learn more

10-Day Weather Forecast

Advertisements
Track Severe Weather on mobile